Delta Virtual Airport Information Service

Cancun International Airport

ICAO: MMUN Country: Mexico
Latitude: 21.0365 Longitude: -86.877
Latest Arrival : DAL649 (KSLC-MMUN) Latest Departure : JBU1914 (1) (MMUN-KMCO)


WX CaptureLIVE
Data provided by noaa.gov | Fetched at 04:46:45

METAR : MMUN 030947Z 00000KT 7SM BKN015 BKN070 23/20 A3004 RMK 8/170

TAF : MMUN 030437Z 0306/0412 10005KT P6SM BKN015 OVC070 TX28/0320Z TN22/0312Z TEMPO 0306/0309 5SM -RA FM031000 08010KT P6SM VC -RA BKN015 OVC070 TEMPO 0311/0314 5SM RA FM031800 06005KT P6SM BKN015 OVC070 FM040300 00000KT P6SM BKN015 BKN100


Runway Data for MMUN
Data provided by openaviationdata.com

Runway ID Mag Var Hdg Length Elevation Surface ILS Freq ILS Id ILS Slope
12 2 121° 11497 ft 20 ft Asphalt 108.55 IABA 3
30 2 301° 11497 ft 20 ft Asphalt -- -- --

Cancun International Airport, Mexico
Use only for reference purposes



Not for navigational purposes.